Time;durP1;ratioP1;P1;durP2;ratioP2;P2;SDS_P1;SDS_P2;PMS_P1;PMS_P2;Temp;Humidity;BMP_temperature;BMP_pressure;BME280_temperature;BME280_humidity;BME280_pressure;Samples;Min_cycle;Max_cycle;Signal;HPM_P1;HPM_P2
2021/04/08 04:01:19;;;;;;;10.68;2.40;;;1.80;99.90;;;;;;5502982;23;20241;-72
2021/04/08 04:03:45;;;;;;;8.27;1.90;;;1.80;99.90;;;;;;4916141;29;20616;-73
2021/04/08 04:06:12;;;;;;;3.28;1.75;;;1.70;99.90;;;;;;4915235;29;20254;-75
2021/04/08 04:08:40;;;;;;;7.28;2.10;;;1.70;99.90;;;;;;4916620;29;20210;-74
2021/04/08 04:11:06;;;;;;;4.43;2.10;;;1.70;99.90;;;;;;4908237;29;20231;-75
2021/04/08 04:13:34;;;;;;;7.78;1.98;;;1.70;99.90;;;;;;4897210;29;20763;-75
2021/04/08 04:16:02;;;;;;;7.32;2.08;;;1.70;99.90;;;;;;4897138;29;20208;-74
2021/04/08 04:18:29;;;;;;;5.93;2.10;;;1.60;99.90;;;;;;4896973;29;20219;-75
2021/04/08 04:20:55;;;;;;;2.35;1.42;;;1.60;99.90;;;;;;4896667;29;20230;-75
2021/04/08 04:23:22;;;;;;;7.75;2.35;;;1.60;99.90;;;;;;4897170;29;20196;-75
2021/04/08 04:25:48;;;;;;;2.58;2.10;;;1.60;99.90;;;;;;4895990;29;20286;-75
2021/04/08 04:28:15;;;;;;;9.18;2.00;;;1.60;99.90;;;;;;4897030;29;20207;-75
2021/04/08 04:30:41;;;;;;;1.92;1.83;;;1.60;99.90;;;;;;4896865;29;20704;-75
2021/04/08 04:33:07;;;;;;;2.20;1.65;;;1.60;99.90;;;;;;4896518;29;20303;-75
2021/04/08 04:35:34;;;;;;;5.93;1.80;;;1.60;99.90;;;;;;4877985;29;20742;-74
2021/04/08 04:38:00;;;;;;;10.32;2.35;;;1.60;99.90;;;;;;4879674;29;20216;-75
2021/04/08 04:40:27;;;;;;;3.42;1.65;;;1.50;99.90;;;;;;4895961;29;20234;-75
2021/04/08 04:42:53;;;;;;;4.25;2.25;;;1.50;99.90;;;;;;4896939;29;20249;-74
2021/04/08 04:45:19;;;;;;;3.05;1.98;;;1.50;99.90;;;;;;4897049;29;20267;-76
2021/04/08 04:47:46;;;;;;;3.17;2.00;;;1.50;99.90;;;;;;4897872;29;20210;-75
2021/04/08 04:50:14;;;;;;;5.20;3.08;;;1.50;99.90;;;;;;4896494;29;20207;-75
2021/04/08 04:52:41;;;;;;;6.78;2.25;;;1.50;99.90;;;;;;4915540;29;20256;-75
2021/04/08 04:55:09;;;;;;;3.35;2.10;;;1.50;99.90;;;;;;4896010;29;20239;-75
2021/04/08 04:57:35;;;;;;;4.20;2.63;;;1.60;99.90;;;;;;4894840;29;20640;-75
2021/04/08 05:00:01;;;;;;;6.07;2.40;;;1.60;99.90;;;;;;4896581;29;20230;-74
2021/04/08 05:02:28;;;;;;;4.82;2.50;;;1.60;99.90;;;;;;4896406;29;20247;-74
2021/04/08 05:04:54;;;;;;;20.05;4.05;;;1.60;99.90;;;;;;4896502;29;20211;-75
2021/04/08 05:07:20;;;;;;;3.70;2.53;;;1.60;99.90;;;;;;4896400;29;20219;-75
2021/04/08 05:09:47;;;;;;;4.50;2.15;;;1.70;99.90;;;;;;4896583;29;20636;-75
2021/04/08 05:12:13;;;;;;;3.20;2.83;;;1.70;99.90;;;;;;4896437;29;20223;-75
2021/04/08 05:14:39;;;;;;;7.30;3.65;;;1.70;99.90;;;;;;4896845;29;20224;-75
2021/04/08 05:17:06;;;;;;;3.53;2.78;;;1.70;99.90;;;;;;4896635;29;20549;-76
2021/04/08 05:19:32;;;;;;;6.45;3.10;;;1.70;99.90;;;;;;4896259;29;20641;-75
2021/04/08 05:21:58;;;;;;;9.23;3.60;;;1.80;99.90;;;;;;4896849;29;20730;-75
2021/04/08 05:24:25;;;;;;;8.02;2.63;;;1.90;99.90;;;;;;4896271;29;20199;-75
2021/04/08 05:26:52;;;;;;;8.00;3.83;;;1.90;99.90;;;;;;4896227;29;20216;-76
2021/04/08 05:29:18;;;;;;;5.95;3.22;;;2.00;99.90;;;;;;4896797;29;20211;-74
2021/04/08 05:31:44;;;;;;;8.00;4.07;;;2.00;99.90;;;;;;4896850;29;20719;-74
2021/04/08 05:34:10;;;;;;;8.85;2.83;;;2.00;99.90;;;;;;4895378;29;20243;-73
2021/04/08 05:36:37;;;;;;;7.22;3.90;;;2.00;99.90;;;;;;4896716;29;20208;-73
2021/04/08 05:39:04;;;;;;;14.43;3.60;;;2.10;99.90;;;;;;4899180;29;20215;-73
2021/04/08 05:41:30;;;;;;;7.53;4.10;;;2.30;99.90;;;;;;4899771;29;20234;-74
2021/04/08 05:43:57;;;;;;;10.25;3.30;;;2.50;99.90;;;;;;4900101;29;20622;-71
2021/04/08 05:46:23;;;;;;;5.05;3.25;;;2.70;99.90;;;;;;4899861;29;20211;-71
2021/04/08 05:48:49;;;;;;;2.92;2.55;;;2.90;99.90;;;;;;4899625;29;20218;-71
2021/04/08 05:51:16;;;;;;;7.50;2.17;;;2.90;99.90;;;;;;4900078;29;20247;-71
2021/04/08 05:53:42;;;;;;;6.93;2.90;;;3.00;99.90;;;;;;4899401;29;20691;-72
2021/04/08 05:56:08;;;;;;;3.83;2.90;;;3.00;99.90;;;;;;4899427;29;20218;-72
2021/04/08 05:58:35;;;;;;;2.80;2.28;;;3.00;99.90;;;;;;4899683;29;20207;-71
2021/04/08 06:01:02;;;;;;;3.58;2.40;;;3.00;99.90;;;;;;4899468;29;20235;-71
2021/04/08 06:03:28;;;;;;;8.73;2.63;;;3.00;99.90;;;;;;4899790;29;20262;-70
2021/04/08 06:05:54;;;;;;;3.50;2.47;;;3.10;99.90;;;;;;4899049;29;20239;-70
2021/04/08 06:08:20;;;;;;;9.10;2.50;;;3.20;99.90;;;;;;4899344;29;20287;-71
2021/04/08 06:10:47;;;;;;;6.68;2.28;;;3.20;99.90;;;;;;4899084;29;20238;-71
2021/04/08 06:13:13;;;;;;;8.30;1.63;;;3.20;99.90;;;;;;4899378;29;20207;-71
2021/04/08 06:15:40;;;;;;;7.80;2.20;;;3.20;99.90;;;;;;4899079;29;20212;-72
2021/04/08 06:18:07;;;;;;;3.03;2.35;;;3.20;99.90;;;;;;4899530;29;20894;-71
2021/04/08 06:20:34;;;;;;;6.88;2.20;;;3.20;99.90;;;;;;4898562;29;20279;-71
2021/04/08 06:23:00;;;;;;;1.73;1.60;;;3.20;99.90;;;;;;4899300;29;20262;-71
2021/04/08 06:25:27;;;;;;;23.65;13.30;;;3.20;99.90;;;;;;4898900;29;20211;-71
2021/04/08 06:27:53;;;;;;;10.48;5.53;;;3.30;99.90;;;;;;4898898;29;20223;-72
2021/04/08 06:30:20;;;;;;;3.53;2.67;;;3.30;99.90;;;;;;4898992;29;20676;-71
2021/04/08 06:32:46;;;;;;;4.88;1.70;;;3.30;99.90;;;;;;4898763;29;20691;-71
2021/04/08 06:35:14;;;;;;;3.45;2.13;;;3.30;99.90;;;;;;4899173;29;20612;-72
2021/04/08 06:37:40;;;;;;;5.75;1.95;;;3.30;99.90;;;;;;4898930;29;20215;-72
2021/04/08 06:40:07;;;;;;;7.10;2.97;;;3.30;99.90;;;;;;4899275;29;20219;-72
2021/04/08 06:42:36;;;;;;;5.93;3.95;;;3.40;99.90;;;;;;4899059;29;20218;-72
2021/04/08 06:45:04;;;;;;;2.72;2.53;;;3.50;99.90;;;;;;4898974;29;20203;-72
2021/04/08 06:47:36;;;;;;;3.13;2.80;;;3.70;99.90;;;;;;4898868;29;20297;-72
2021/04/08 06:50:05;;;;;;;5.22;2.85;;;3.80;99.90;;;;;;4897797;29;20218;-71
2021/04/08 06:52:33;;;;;;;4.72;3.03;;;3.90;99.90;;;;;;4898675;29;20234;-71
2021/04/08 06:54:59;;;;;;;3.80;3.30;;;3.90;99.90;;;;;;4898724;29;20326;-71
2021/04/08 06:57:28;;;;;;;5.13;4.30;;;4.00;99.90;;;;;;4897993;29;20212;-71
2021/04/08 06:59:57;;;;;;;7.53;4.00;;;4.00;99.90;;;;;;4898728;29;20234;-70
2021/04/08 07:02:23;;;;;;;7.68;3.60;;;4.00;99.90;;;;;;4898431;29;20724;-71
2021/04/08 07:04:50;;;;;;;10.77;7.57;;;4.00;99.90;;;;;;4898158;29;20207;-70
2021/04/08 07:07:16;;;;;;;7.07;3.55;;;4.00;99.90;;;;;;4901076;29;20215;-74
2021/04/08 07:09:44;;;;;;;4.88;4.35;;;4.00;99.90;;;;;;4904529;29;20317;-74
2021/04/08 07:12:12;;;;;;;4.30;3.90;;;4.00;99.90;;;;;;4907052;29;20231;-74
2021/04/08 07:14:39;;;;;;;6.32;4.45;;;4.00;99.90;;;;;;4905802;29;20235;-75
2021/04/08 07:17:09;;;;;;;9.43;5.55;;;4.10;99.90;;;;;;4908693;29;20203;-75
2021/04/08 07:19:36;;;;;;;9.98;5.47;;;4.10;99.90;;;;;;4903659;29;20256;-74
2021/04/08 07:22:03;;;;;;;13.02;7.25;;;4.10;99.90;;;;;;4907172;29;20324;-72
2021/04/08 07:24:29;;;;;;;9.70;5.75;;;4.20;99.90;;;;;;4905786;29;20199;-74
2021/04/08 07:27:01;;;;;;;12.13;7.50;;;4.20;99.90;;;;;;4904347;29;20204;-75
2021/04/08 07:29:48;;;;;;;11.18;7.03;;;4.30;99.90;;;;;;4903142;29;20210;-75
2021/04/08 07:32:19;;;;;;;6.70;6.10;;;4.30;99.90;;;;;;4903589;29;20255;-75
2021/04/08 07:34:47;;;;;;;6.05;5.50;;;4.20;99.90;;;;;;4905390;29;20223;-74
2021/04/08 07:37:14;;;;;;;11.10;5.95;;;4.20;99.90;;;;;;4907125;29;20211;-74
2021/04/08 07:39:43;;;;;;;9.10;5.10;;;4.20;99.90;;;;;;4902998;29;20287;-75
2021/04/08 07:42:12;;;;;;;5.57;4.30;;;4.20;99.90;;;;;;4897206;29;20235;-72
2021/04/08 07:44:46;;;;;;;5.55;4.28;;;4.30;99.90;;;;;;4908145;29;20690;-75
2021/04/08 07:47:21;;;;;;;8.07;5.03;;;4.50;99.90;;;;;;4902470;29;20206;-74
2021/04/08 07:49:48;;;;;;;6.65;4.70;;;4.80;99.90;;;;;;4902055;29;20265;-74
2021/04/08 07:52:18;;;;;;;4.22;3.60;;;5.10;99.90;;;;;;4901920;29;20234;-74
2021/04/08 07:55:00;;;;;;;4.85;4.30;;;5.20;99.90;;;;;;4902120;29;20259;-73
2021/04/08 07:57:28;;;;;;;3.58;3.30;;;5.20;99.90;;;;;;4898093;29;20580;-74
2021/04/08 07:59:55;;;;;;;9.95;3.45;;;5.20;99.90;;;;;;4904917;29;20270;-73
2021/04/08 08:02:26;;;;;;;6.47;4.40;;;5.20;99.90;;;;;;4900725;29;20251;-75
2021/04/08 08:05:15;;;;;;;4.97;3.00;;;5.20;99.90;;;;;;4903755;29;20203;-74
2021/04/08 08:07:42;;;;;;;3.75;3.40;;;5.20;99.90;;;;;;4901805;29;20215;-71
2021/04/08 08:10:14;;;;;;;3.60;3.30;;;5.30;99.90;;;;;;4896597;29;20656;-70
2021/04/08 08:12:41;;;;;;;3.50;2.70;;;5.50;99.90;;;;;;4890863;29;20207;-69
2021/04/08 08:15:17;;;;;;;6.25;3.75;;;5.60;99.90;;;;;;4896430;29;20235;-69
2021/04/08 08:17:43;;;;;;;5.25;3.38;;;5.70;99.90;;;;;;4896745;29;20205;-69
2021/04/08 08:20:11;;;;;;;6.15;3.72;;;5.80;99.90;;;;;;4895444;29;20543;-69
2021/04/08 08:22:39;;;;;;;3.90;3.58;;;5.70;99.90;;;;;;4896253;29;20547;-69
2021/04/08 08:25:07;;;;;;;7.57;3.50;;;5.60;99.90;;;;;;4895963;29;20211;-69
2021/04/08 08:27:47;;;;;;;5.55;3.17;;;5.60;99.90;;;;;;4896221;29;20590;-69
2021/04/08 08:30:19;;;;;;;4.90;3.78;;;5.60;99.90;;;;;;4893718;29;20203;-69
2021/04/08 08:33:11;;;;;;;2.90;2.67;;;5.60;99.90;;;;;;4893828;29;20207;-70
2021/04/08 08:35:38;;;;;;;4.22;3.30;;;5.70;99.90;;;;;;4882607;29;20275;-70
2021/04/08 08:38:13;;;;;;;3.55;3.30;;;5.70;99.90;;;;;;4895971;29;20219;-70
2021/04/08 08:40:40;;;;;;;2.58;2.38;;;5.80;99.90;;;;;;4895911;29;20690;-70
2021/04/08 08:43:12;;;;;;;8.27;4.30;;;6.10;99.90;;;;;;4897823;29;20211;-70
2021/04/08 08:45:38;;;;;;;4.88;2.65;;;6.20;99.90;;;;;;4891211;29;20223;-69
2021/04/08 08:48:14;;;;;;;3.92;3.10;;;6.40;99.90;;;;;;4896688;29;20278;-72
2021/04/08 08:50:42;;;;;;;2.65;2.53;;;6.50;99.90;;;;;;4896038;29;20231;-72
2021/04/08 08:53:10;;;;;;;9.27;3.17;;;6.60;99.90;;;;;;4896776;29;20590;-72
2021/04/08 08:55:38;;;;;;;8.27;2.67;;;6.80;99.90;;;;;;4895738;29;20373;-73
2021/04/08 08:58:06;;;;;;;3.85;2.30;;;6.90;99.90;;;;;;4893003;29;20302;-72
2021/04/08 09:00:34;;;;;;;4.75;2.17;;;6.90;99.90;;;;;;4895445;29;20234;-71
2021/04/08 09:03:01;;;;;;;4.07;2.10;;;7.00;99.90;;;;;;4894222;29;20214;-72
2021/04/08 09:05:29;;;;;;;3.50;2.25;;;7.00;99.90;;;;;;4895645;29;20291;-70
2021/04/08 09:07:59;;;;;;;11.02;2.97;;;6.90;99.90;;;;;;4895569;29;20220;-70
2021/04/08 09:10:31;;;;;;;10.35;2.80;;;6.90;99.90;;;;;;4894665;29;20207;-70
2021/04/08 09:12:57;;;;;;;6.88;2.70;;;6.90;99.90;;;;;;4898288;29;20207;-70
2021/04/08 09:15:24;;;;;;;3.78;3.00;;;6.90;99.90;;;;;;4901294;29;20638;-71
2021/04/08 09:17:56;;;;;;;3.25;2.45;;;6.90;99.90;;;;;;4899963;29;20278;-70
2021/04/08 09:20:23;;;;;;;5.10;2.47;;;6.90;99.90;;;;;;4900033;29;20259;-69
2021/04/08 09:22:52;;;;;;;5.82;2.63;;;7.00;99.90;;;;;;4900104;29;20218;-69
2021/04/08 09:25:19;;;;;;;2.63;2.00;;;6.90;99.90;;;;;;4900036;29;20211;-69
2021/04/08 09:27:51;;;;;;;2.75;2.53;;;6.90;99.90;;;;;;4900014;29;20672;-71
2021/04/08 09:30:43;;;;;;;2.10;2.00;;;7.00;99.90;;;;;;4900175;29;20604;-72
2021/04/08 09:33:11;;;;;;;3.13;2.17;;;7.00;99.90;;;;;;4899849;29;20298;-71
2021/04/08 09:35:37;;;;;;;4.47;2.47;;;7.00;99.90;;;;;;4899750;29;20231;-71
2021/04/08 09:38:19;;;;;;;5.45;2.40;;;7.00;99.90;;;;;;4900289;29;20218;-71
2021/04/08 09:41:02;;;;;;;8.35;4.95;;;7.10;99.90;;;;;;4900034;29;20235;-70
2021/04/08 09:43:30;;;;;;;7.18;4.10;;;7.30;99.90;;;;;;4898674;29;20671;-70
2021/04/08 09:46:03;;;;;;;2.05;1.95;;;7.40;99.90;;;;;;4901407;29;20233;-72
2021/04/08 09:48:54;;;;;;;6.32;2.15;;;7.40;99.90;;;;;;4902709;29;20214;-73
2021/04/08 09:51:32;;;;;;;2.63;1.40;;;7.50;99.90;;;;;;4904231;29;20237;-71
2021/04/08 09:54:17;;;;;;;7.85;2.95;;;7.40;99.90;;;;;;4898365;29;20561;-71
2021/04/08 09:56:54;;;;;;;4.15;2.33;;;7.50;99.90;;;;;;4899233;29;20211;-70
2021/04/08 09:59:22;;;;;;;2.70;1.40;;;7.60;99.90;;;;;;4899496;29;20278;-71
2021/04/08 10:01:49;;;;;;;2.80;1.80;;;7.70;99.90;;;;;;4899182;29;20235;-71
2021/04/08 10:04:26;;;;;;;2.63;1.85;;;7.80;99.90;;;;;;4898936;29;20207;-70
2021/04/08 10:07:03;;;;;;;3.25;1.10;;;8.00;99.90;;;;;;4899362;29;20215;-70
2021/04/08 10:09:29;;;;;;;2.80;1.67;;;8.00;99.90;;;;;;4899635;29;20207;-70
2021/04/08 10:11:56;;;;;;;2.20;1.05;;;7.90;99.90;;;;;;4898981;29;20236;-70
2021/04/08 10:14:25;;;;;;;3.22;1.15;;;8.10;99.90;;;;;;4899205;29;20310;-71
2021/04/08 10:17:03;;;;;;;1.35;1.00;;;8.10;99.90;;;;;;4899530;29;20219;-71
2021/04/08 10:19:32;;;;;;;3.08;1.48;;;8.20;99.90;;;;;;4898822;29;20211;-71
2021/04/08 10:21:58;;;;;;;4.35;1.13;;;8.30;99.90;;;;;;4899384;29;20239;-72
2021/04/08 10:24:25;;;;;;;1.02;1.02;;;8.30;99.90;;;;;;4900072;29;20207;-72
2021/04/08 10:26:51;;;;;;;1.88;1.25;;;8.40;99.90;;;;;;4899570;29;20215;-72
2021/04/08 10:29:31;;;;;;;0.80;0.80;;;8.40;99.90;;;;;;4899538;29;20234;-72
2021/04/08 10:31:58;;;;;;;3.13;2.17;;;8.30;99.90;;;;;;4899306;29;20741;-72
2021/04/08 10:34:34;;;;;;;1.90;1.80;;;8.30;99.90;;;;;;4899047;29;20234;-72
2021/04/08 10:37:01;;;;;;;1.67;1.42;;;8.30;99.90;;;;;;4899222;29;20282;-72
2021/04/08 10:39:29;;;;;;;3.30;1.45;;;8.30;99.90;;;;;;4899335;29;20207;-72
2021/04/08 10:42:00;;;;;;;3.08;1.00;;;8.40;99.90;;;;;;4899069;29;20238;-72
2021/04/08 10:44:29;;;;;;;1.90;1.20;;;8.40;99.90;;;;;;4898943;29;20208;-72
2021/04/08 10:47:00;;;;;;;0.77;0.77;;;8.40;99.90;;;;;;4899459;29;20218;-72
2021/04/08 10:49:29;;;;;;;3.45;1.38;;;8.40;99.90;;;;;;4900250;29;20302;-72
2021/04/08 10:52:02;;;;;;;2.08;1.50;;;8.30;99.90;;;;;;4898787;29;20234;-72
2021/04/08 10:54:30;;;;;;;2.15;1.40;;;8.10;99.90;;;;;;4899329;29;20255;-72
2021/04/08 10:56:57;;;;;;;1.80;1.70;;;8.00;99.90;;;;;;4898625;29;20218;-72
2021/04/08 10:59:25;;;;;;;1.55;1.45;;;8.00;99.90;;;;;;4899176;29;20245;-71
2021/04/08 11:01:52;;;;;;;2.20;2.00;;;8.00;99.90;;;;;;4898218;29;20266;-72
2021/04/08 11:04:20;;;;;;;2.13;1.90;;;8.00;99.90;;;;;;4898293;29;20316;-71
2021/04/08 11:06:47;;;;;;;2.95;2.00;;;8.10;99.90;;;;;;4899557;29;20314;-71
2021/04/08 11:09:22;;;;;;;2.10;1.95;;;8.20;99.90;;;;;;4898660;29;20657;-72
2021/04/08 11:11:48;;;;;;;3.10;1.73;;;8.30;99.90;;;;;;4898983;29;20273;-69
2021/04/08 11:14:20;;;;;;;2.35;2.20;;;8.30;99.90;;;;;;4897134;29;20227;-72
2021/04/08 11:16:47;;;;;;;5.10;2.67;;;8.40;99.90;;;;;;4898298;29;20207;-71
2021/04/08 11:19:14;;;;;;;2.22;2.10;;;8.50;99.90;;;;;;4898718;29;20668;-72
2021/04/08 11:21:40;;;;;;;1.83;1.73;;;8.50;99.90;;;;;;4898208;29;20236;-72
2021/04/08 11:24:07;;;;;;;2.15;1.77;;;8.50;99.90;;;;;;4897500;29;20621;-71
2021/04/08 11:26:46;;;;;;;2.10;2.00;;;8.40;99.90;;;;;;4897833;29;20203;-71
2021/04/08 11:29:12;;;;;;;2.50;2.40;;;8.40;99.90;;;;;;4900051;29;20215;-72
2021/04/08 11:31:38;;;;;;;3.30;1.67;;;8.50;99.90;;;;;;4897830;29;20231;-72
2021/04/08 11:34:05;;;;;;;2.08;1.98;;;8.50;99.90;;;;;;4895584;29;20358;-69
2021/04/08 11:36:31;;;;;;;2.05;1.95;;;8.50;99.90;;;;;;4897655;29;20217;-71
2021/04/08 11:39:08;;;;;;;1.70;1.70;;;8.30;99.90;;;;;;4897388;29;20259;-70
2021/04/08 11:41:35;;;;;;;1.90;1.80;;;8.10;99.90;;;;;;4897465;29;20226;-70
2021/04/08 11:44:01;;;;;;;1.80;1.70;;;8.00;99.90;;;;;;4897164;29;20199;-71
2021/04/08 11:46:29;;;;;;;2.15;1.60;;;7.80;99.90;;;;;;4897328;29;20246;-71
2021/04/08 11:48:57;;;;;;;1.92;1.83;;;7.70;99.90;;;;;;4897190;29;20214;-71
2021/04/08 11:51:25;;;;;;;3.78;1.67;;;7.70;99.90;;;;;;4897295;29;20239;-70
2021/04/08 11:53:52;;;;;;;2.05;2.03;;;7.70;99.90;;;;;;4896560;29;20270;-71
2021/04/08 11:56:31;;;;;;;2.53;2.30;;;7.70;99.90;;;;;;4897056;29;20203;-71
2021/04/08 11:59:09;;;;;;;2.20;1.17;;;7.70;99.90;;;;;;4897399;29;20215;-71
2021/04/08 12:01:37;;;;;;;2.90;1.58;;;7.70;99.90;;;;;;4896285;29;20231;-71
2021/04/08 12:04:13;;;;;;;1.50;1.40;;;7.80;99.90;;;;;;4896792;29;20228;-71
2021/04/08 12:06:41;;;;;;;3.17;1.60;;;7.80;99.90;;;;;;4897437;29;20214;-71
2021/04/08 12:09:07;;;;;;;3.90;2.30;;;7.70;99.90;;;;;;4897326;29;20278;-71
2021/04/08 12:11:47;;;;;;;1.52;1.42;;;7.70;99.90;;;;;;4896423;29;20227;-71
2021/04/08 12:14:14;;;;;;;1.10;1.00;;;7.60;99.90;;;;;;4895040;29;20234;-71
2021/04/08 12:16:40;;;;;;;3.20;1.30;;;7.60;99.90;;;;;;4896539;29;20208;-71
2021/04/08 12:19:07;;;;;;;3.78;1.33;;;7.50;99.90;;;;;;4896520;29;20214;-71
2021/04/08 12:21:33;;;;;;;1.30;1.23;;;7.50;99.90;;;;;;4896469;29;20238;-70
2021/04/08 12:24:07;;;;;;;1.20;1.10;;;7.40;99.90;;;;;;4894677;29;20254;-70
2021/04/08 12:26:35;;;;;;;1.60;1.50;;;7.40;99.90;;;;;;4894791;29;20221;-70
2021/04/08 12:29:01;;;;;;;3.78;1.10;;;7.30;99.90;;;;;;4896983;29;20513;-71
2021/04/08 12:31:28;;;;;;;3.50;1.35;;;7.10;99.90;;;;;;4896631;29;20238;-71
2021/04/08 12:33:54;;;;;;;3.22;2.28;;;7.00;99.90;;;;;;4896398;29;20278;-71
2021/04/08 12:36:21;;;;;;;4.70;1.70;;;6.90;99.90;;;;;;4889487;29;20219;-71
2021/04/08 12:38:47;;;;;;;1.52;1.35;;;7.00;99.90;;;;;;4896450;29;20207;-71
2021/04/08 12:41:13;;;;;;;1.65;1.55;;;7.00;99.90;;;;;;4896019;29;20223;-71
2021/04/08 12:43:39;;;;;;;1.30;1.30;;;7.20;99.90;;;;;;4896537;29;20227;-71
2021/04/08 12:46:05;;;;;;;1.92;1.75;;;7.30;99.90;;;;;;4895797;29;20212;-71
2021/04/08 12:48:32;;;;;;;1.70;1.60;;;7.40;99.90;;;;;;4894356;29;20214;-71
2021/04/08 12:50:59;;;;;;;2.10;1.65;;;7.50;99.90;;;;;;4889379;29;20237;-70
2021/04/08 12:53:26;;;;;;;1.92;1.40;;;7.50;99.90;;;;;;4896233;29;20211;-71
2021/04/08 12:55:54;;;;;;;1.60;1.58;;;7.60;99.90;;;;;;4895419;29;20231;-71
2021/04/08 12:58:21;;;;;;;1.88;1.77;;;7.60;99.90;;;;;;4896098;29;20215;-71
2021/04/08 13:00:47;;;;;;;2.72;2.20;;;7.70;99.90;;;;;;4895028;29;20712;-71
2021/04/08 13:03:14;;;;;;;3.92;1.60;;;7.70;99.90;;;;;;4896117;29;20207;-71
2021/04/08 13:05:42;;;;;;;3.13;2.03;;;7.80;99.90;;;;;;4895680;29;20310;-71
2021/04/08 13:08:10;;;;;;;2.75;1.35;;;7.90;99.90;;;;;;4896236;29;20222;-71
2021/04/08 13:10:38;;;;;;;1.85;1.10;;;7.90;99.90;;;;;;4896263;29;20223;-71
2021/04/08 13:13:05;;;;;;;1.73;1.63;;;8.00;99.90;;;;;;4896996;29;20207;-70
2021/04/08 13:15:31;;;;;;;2.50;2.30;;;8.10;99.90;;;;;;4896008;29;20227;-71
2021/04/08 13:17:58;;;;;;;3.55;2.97;;;8.20;99.90;;;;;;4894244;29;20227;-71
2021/04/08 13:20:26;;;;;;;2.75;2.50;;;8.20;99.90;;;;;;4896460;29;20638;-71
2021/04/08 13:22:53;;;;;;;2.30;2.10;;;8.20;99.90;;;;;;4896327;29;20216;-71
2021/04/08 13:25:21;;;;;;;2.40;1.80;;;8.20;99.90;;;;;;4896050;29;20222;-71
2021/04/08 13:27:47;;;;;;;1.75;1.65;;;8.00;99.90;;;;;;4889884;29;20248;-71
2021/04/08 13:30:16;;;;;;;3.88;2.55;;;7.90;99.90;;;;;;4895772;29;20211;-71
2021/04/08 13:32:42;;;;;;;3.75;1.50;;;7.70;99.90;;;;;;4877960;29;20216;-70
2021/04/08 13:35:10;;;;;;;4.07;1.77;;;7.60;99.90;;;;;;4895462;29;20234;-71
2021/04/08 13:37:36;;;;;;;2.80;2.60;;;7.50;99.90;;;;;;4880666;29;20222;-71
2021/04/08 13:40:04;;;;;;;3.65;3.30;;;7.40;99.90;;;;;;4896246;29;20204;-71
2021/04/08 13:42:31;;;;;;;1.70;1.60;;;7.30;99.90;;;;;;4896590;29;20246;-71
2021/04/08 13:44:58;;;;;;;2.70;2.55;;;7.30;99.90;;;;;;4889254;29;20256;-71
2021/04/08 13:47:24;;;;;;;2.67;2.50;;;7.20;99.90;;;;;;4891435;29;20203;-70
2021/04/08 13:49:50;;;;;;;5.50;5.03;;;7.20;99.90;;;;;;4899011;29;20211;-70
2021/04/08 13:52:16;;;;;;;2.40;2.30;;;7.10;99.90;;;;;;4898471;29;20309;-70
2021/04/08 13:54:43;;;;;;;3.95;2.75;;;7.10;99.90;;;;;;4899480;29;20227;-70
2021/04/08 13:57:10;;;;;;;5.72;3.47;;;7.20;99.90;;;;;;4897976;29;20267;-70
2021/04/08 13:59:36;;;;;;;2.17;2.08;;;7.30;99.90;;;;;;4901472;29;20251;-70
2021/04/08 14:02:02;;;;;;;2.95;2.28;;;7.30;99.90;;;;;;4900304;29;20246;-70
2021/04/08 14:04:28;;;;;;;2.20;1.98;;;7.40;99.90;;;;;;4900758;29;20357;-71
2021/04/08 14:06:54;;;;;;;3.55;2.33;;;7.50;99.90;;;;;;4900633;29;20214;-71
2021/04/08 14:09:21;;;;;;;2.08;2.08;;;7.50;99.90;;;;;;4900460;29;20215;-71
2021/04/08 14:11:48;;;;;;;1.77;1.67;;;7.50;99.90;;;;;;4901238;29;20256;-70
2021/04/08 14:14:15;;;;;;;6.93;3.72;;;7.60;99.90;;;;;;4919927;29;20234;-70
2021/04/08 14:16:41;;;;;;;4.35;2.03;;;7.60;99.90;;;;;;4904513;29;20535;-71
2021/04/08 14:19:07;;;;;;;2.80;2.55;;;7.70;99.90;;;;;;4899277;29;20215;-71
2021/04/08 14:21:35;;;;;;;2.40;2.20;;;7.70;99.90;;;;;;4899802;29;20224;-71
2021/04/08 14:24:02;;;;;;;3.42;2.30;;;7.70;99.90;;;;;;4899873;29;20700;-71
2021/04/08 14:26:28;;;;;;;2.78;2.58;;;7.70;99.90;;;;;;4899095;29;20707;-71
2021/04/08 14:28:55;;;;;;;1.55;1.40;;;7.70;99.90;;;;;;4900128;29;20541;-69
2021/04/08 14:31:22;;;;;;;2.47;2.30;;;7.60;99.90;;;;;;4898428;29;20655;-70
2021/04/08 14:33:49;;;;;;;2.40;1.50;;;7.50;99.90;;;;;;4900015;29;20211;-71
2021/04/08 14:36:15;;;;;;;6.57;2.55;;;7.50;99.90;;;;;;4899727;29;20722;-70
2021/04/08 14:38:41;;;;;;;4.95;2.42;;;7.30;99.90;;;;;;4900558;29;20303;-70
2021/04/08 14:41:08;;;;;;;3.17;2.05;;;7.20;99.90;;;;;;4899622;29;20234;-70
2021/04/08 14:43:34;;;;;;;2.63;2.20;;;7.00;99.90;;;;;;4899178;29;20689;-71
2021/04/08 14:46:00;;;;;;;3.53;1.98;;;7.00;99.90;;;;;;4899330;29;20202;-71
2021/04/08 14:48:27;;;;;;;2.28;2.28;;;7.00;99.90;;;;;;4899680;29;20215;-72
2021/04/08 14:50:57;;;;;;;2.15;2.05;;;7.00;99.90;;;;;;4898938;29;20684;-71
2021/04/08 14:53:23;;;;;;;2.25;1.80;;;7.10;99.90;;;;;;4898465;29;20255;-71
2021/04/08 14:55:49;;;;;;;3.30;2.05;;;7.20;99.90;;;;;;4897745;29;20848;-72
2021/04/08 14:58:15;;;;;;;13.73;3.20;;;7.30;99.90;;;;;;4898694;29;20303;-72
2021/04/08 15:00:41;;;;;;;2.97;2.35;;;7.30;99.90;;;;;;4897792;29;20270;-71
2021/04/08 15:03:08;;;;;;;1.88;1.70;;;7.30;99.90;;;;;;4895928;29;20211;-71
2021/04/08 15:05:35;;;;;;;1.60;1.50;;;7.30;99.90;;;;;;4897606;29;20210;-71
2021/04/08 15:08:01;;;;;;;1.90;1.90;;;7.30;99.90;;;;;;4898083;29;20215;-71
2021/04/08 15:10:29;;;;;;;2.83;2.50;;;7.20;99.90;;;;;;4897474;29;20247;-72
2021/04/08 15:12:55;;;;;;;3.28;2.08;;;7.30;99.90;;;;;;4898028;29;20558;-70
2021/04/08 15:15:21;;;;;;;4.60;1.88;;;7.30;99.90;;;;;;4897449;29;20231;-69
2021/04/08 15:17:47;;;;;;;4.35;2.70;;;7.40;99.90;;;;;;4897617;29;20290;-70
2021/04/08 15:20:15;;;;;;;4.00;2.90;;;7.40;99.90;;;;;;4897534;29;20207;-70
2021/04/08 15:22:43;;;;;;;2.60;2.40;;;7.50;99.90;;;;;;4897306;29;20212;-69
2021/04/08 15:25:11;;;;;;;3.50;3.15;;;7.60;99.90;;;;;;4896519;29;20604;-70
2021/04/08 15:27:37;;;;;;;3.20;2.20;;;7.60;99.90;;;;;;4895939;29;20608;-70
2021/04/08 15:30:04;;;;;;;2.83;2.38;;;7.60;99.90;;;;;;4896818;29;20211;-71
2021/04/08 15:32:31;;;;;;;1.98;1.98;;;7.60;99.90;;;;;;4882506;29;20233;-70
2021/04/08 15:34:57;;;;;;;2.42;2.30;;;7.50;99.90;;;;;;4896691;29;20231;-70
2021/04/08 15:37:23;;;;;;;5.13;3.33;;;7.50;99.90;;;;;;4897187;29;20208;-70
2021/04/08 15:39:50;;;;;;;2.47;2.28;;;7.50;99.90;;;;;;4897462;29;20219;-71
2021/04/08 15:42:16;;;;;;;2.25;2.05;;;7.50;99.90;;;;;;4896329;29;20234;-70
2021/04/08 15:44:45;;;;;;;3.25;2.47;;;7.40;99.90;;;;;;4897345;29;20204;-71
2021/04/08 15:47:12;;;;;;;2.47;2.30;;;7.50;99.90;;;;;;4897132;29;20695;-70
2021/04/08 15:49:38;;;;;;;2.85;2.75;;;7.40;99.90;;;;;;4896916;29;20294;-67
2021/04/08 15:52:05;;;;;;;4.38;3.97;;;7.40;99.90;;;;;;4897678;29;20238;-70
2021/04/08 15:54:32;;;;;;;2.50;2.40;;;7.40;99.90;;;;;;4894758;29;20707;-71
2021/04/08 15:57:00;;;;;;;3.35;2.65;;;7.50;99.90;;;;;;4886562;29;20204;-70
2021/04/08 15:59:26;;;;;;;3.35;3.05;;;7.40;99.90;;;;;;4884005;29;20235;-71
2021/04/08 16:01:52;;;;;;;7.97;3.38;;;7.40;99.90;;;;;;4900648;29;20235;-71
2021/04/08 16:04:18;;;;;;;3.53;3.40;;;7.30;99.90;;;;;;4898138;29;20215;-69
2021/04/08 16:06:45;;;;;;;3.72;3.40;;;7.30;99.90;;;;;;4898922;29;20219;-70
2021/04/08 16:09:11;;;;;;;2.85;2.70;;;7.20;99.90;;;;;;4898565;29;20211;-71
2021/04/08 16:11:37;;;;;;;4.75;3.05;;;7.20;99.90;;;;;;4898867;29;20227;-71
2021/04/08 16:14:04;;;;;;;8.80;4.47;;;7.20;99.90;;;;;;4899166;29;20222;-71
2021/04/08 16:16:30;;;;;;;4.25;3.95;;;7.20;99.90;;;;;;4896990;29;20215;-68
2021/04/08 16:18:56;;;;;;;2.72;2.63;;;7.20;99.90;;;;;;4895674;29;20243;-69
2021/04/08 16:21:23;;;;;;;3.28;2.92;;;7.30;99.90;;;;;;4896389;29;20510;-69
2021/04/08 16:23:49;;;;;;;3.88;2.67;;;7.20;99.90;;;;;;4896644;29;20211;-68
2021/04/08 16:26:16;;;;;;;2.55;2.45;;;7.10;99.90;;;;;;4896651;29;20270;-69
2021/04/08 16:28:42;;;;;;;4.85;3.45;;;7.10;99.90;;;;;;4896904;29;20208;-68
2021/04/08 16:31:09;;;;;;;3.65;3.40;;;7.10;99.90;;;;;;4896268;29;20220;-69
2021/04/08 16:33:36;;;;;;;2.80;2.60;;;7.10;99.90;;;;;;4896700;29;20206;-68
2021/04/08 16:36:02;;;;;;;3.03;2.85;;;7.10;99.90;;;;;;4896384;29;20712;-68
2021/04/08 16:38:28;;;;;;;3.85;3.55;;;7.10;99.90;;;;;;4896033;29;20315;-68
2021/04/08 16:40:55;;;;;;;3.03;2.90;;;7.10;99.90;;;;;;4896476;29;20597;-68
2021/04/08 16:43:21;;;;;;;3.42;3.13;;;7.00;99.90;;;;;;4896112;29;20207;-68
2021/04/08 16:45:47;;;;;;;3.20;2.55;;;7.00;99.90;;;;;;4896851;29;20691;-69
2021/04/08 16:48:14;;;;;;;3.55;3.08;;;7.00;99.90;;;;;;4897245;29;20207;-69
2021/04/08 16:50:41;;;;;;;6.00;3.20;;;7.00;99.90;;;;;;4895581;29;20234;-68
2021/04/08 16:53:07;;;;;;;3.90;3.55;;;7.00;99.90;;;;;;4896705;29;20215;-69
2021/04/08 16:55:34;;;;;;;3.85;2.92;;;7.00;99.90;;;;;;4895547;29;20230;-68
2021/04/08 16:58:01;;;;;;;3.13;2.92;;;7.00;99.90;;;;;;4893911;29;21996;-68
2021/04/08 17:00:30;;;;;;;2.75;2.65;;;7.00;99.90;;;;;;4889112;29;20384;-68